sensor_id;sensor_type;location;lat;lon;timestamp;temperature;humidity
11087;DHT22;5597;47.588;9.642;2024-01-15T00:02:06;1.50;99.90
11087;DHT22;5597;47.588;9.642;2024-01-15T00:04:39;1.50;99.90
11087;DHT22;5597;47.588;9.642;2024-01-15T00:07:05;1.50;99.90
11087;DHT22;5597;47.588;9.642;2024-01-15T00:09:31;1.50;99.90
11087;DHT22;5597;47.588;9.642;2024-01-15T00:11:57;1.50;99.90
11087;DHT22;5597;47.588;9.642;2024-01-15T00:14:23;1.50;99.90
11087;DHT22;5597;47.588;9.642;2024-01-15T00:16:49;1.50;99.90
11087;DHT22;5597;47.588;9.642;2024-01-15T00:19:18;1.50;99.90
11087;DHT22;5597;47.588;9.642;2024-01-15T00:21:44;1.50;99.90
11087;DHT22;5597;47.588;9.642;2024-01-15T00:24:10;1.50;99.90
11087;DHT22;5597;47.588;9.642;2024-01-15T00:26:36;1.60;99.90
11087;DHT22;5597;47.588;9.642;2024-01-15T00:29:02;1.60;99.90
11087;DHT22;5597;47.588;9.642;2024-01-15T00:31:29;1.60;99.90
11087;DHT22;5597;47.588;9.642;2024-01-15T00:33:55;1.60;99.90
11087;DHT22;5597;47.588;9.642;2024-01-15T00:36:21;1.70;99.90
11087;DHT22;5597;47.588;9.642;2024-01-15T00:38:47;1.70;99.90
11087;DHT22;5597;47.588;9.642;2024-01-15T00:41:13;1.70;99.90
11087;DHT22;5597;47.588;9.642;2024-01-15T00:43:39;1.70;99.90
11087;DHT22;5597;47.588;9.642;2024-01-15T00:46:05;1.70;99.90
11087;DHT22;5597;47.588;9.642;2024-01-15T00:48:31;1.80;99.90
11087;DHT22;5597;47.588;9.642;2024-01-15T00:50:57;1.80;99.90
11087;DHT22;5597;47.588;9.642;2024-01-15T00:53:22;1.80;99.90
11087;DHT22;5597;47.588;9.642;2024-01-15T00:55:49;1.80;99.90
11087;DHT22;5597;47.588;9.642;2024-01-15T00:58:15;1.80;99.90
11087;DHT22;5597;47.588;9.642;2024-01-15T01:00:41;1.80;99.90
11087;DHT22;5597;47.588;9.642;2024-01-15T01:03:07;1.80;99.90
11087;DHT22;5597;47.588;9.642;2024-01-15T01:05:34;1.90;99.90
11087;DHT22;5597;47.588;9.642;2024-01-15T01:08:00;1.90;99.90
11087;DHT22;5597;47.588;9.642;2024-01-15T01:10:26;1.90;99.90
11087;DHT22;5597;47.588;9.642;2024-01-15T01:12:52;1.90;99.90
11087;DHT22;5597;47.588;9.642;2024-01-15T01:15:17;1.90;99.90
11087;DHT22;5597;47.588;9.642;2024-01-15T01:17:43;1.90;99.90
11087;DHT22;5597;47.588;9.642;2024-01-15T01:20:09;1.90;99.90
11087;DHT22;5597;47.588;9.642;2024-01-15T01:22:36;2.00;99.90
11087;DHT22;5597;47.588;9.642;2024-01-15T01:25:02;2.00;99.90
11087;DHT22;5597;47.588;9.642;2024-01-15T01:27:28;2.00;99.90
11087;DHT22;5597;47.588;9.642;2024-01-15T01:29:54;2.00;99.90
11087;DHT22;5597;47.588;9.642;2024-01-15T01:32:20;2.00;99.90
11087;DHT22;5597;47.588;9.642;2024-01-15T01:34:45;2.00;99.90
11087;DHT22;5597;47.588;9.642;2024-01-15T01:37:11;2.10;99.90
11087;DHT22;5597;47.588;9.642;2024-01-15T01:39:43;2.10;99.90
11087;DHT22;5597;47.588;9.642;2024-01-15T01:42:09;2.10;99.90
11087;DHT22;5597;47.588;9.642;2024-01-15T01:44:35;2.10;99.90
11087;DHT22;5597;47.588;9.642;2024-01-15T01:47:01;2.10;99.90
11087;DHT22;5597;47.588;9.642;2024-01-15T01:49:28;2.10;99.90
11087;DHT22;5597;47.588;9.642;2024-01-15T01:51:58;2.10;99.90
11087;DHT22;5597;47.588;9.642;2024-01-15T01:54:29;2.00;99.90
11087;DHT22;5597;47.588;9.642;2024-01-15T01:56:57;2.00;99.90
11087;DHT22;5597;47.588;9.642;2024-01-15T01:59:25;2.00;99.90
11087;DHT22;5597;47.588;9.642;2024-01-15T02:01:54;2.00;99.90
11087;DHT22;5597;47.588;9.642;2024-01-15T02:04:20;2.00;99.90
11087;DHT22;5597;47.588;9.642;2024-01-15T02:06:47;2.00;99.90
11087;DHT22;5597;47.588;9.642;2024-01-15T02:09:13;2.00;99.90
11087;DHT22;5597;47.588;9.642;2024-01-15T02:11:41;2.00;99.90
11087;DHT22;5597;47.588;9.642;2024-01-15T02:14:08;2.00;99.90
11087;DHT22;5597;47.588;9.642;2024-01-15T02:16:34;2.00;99.90
11087;DHT22;5597;47.588;9.642;2024-01-15T02:18:59;1.90;99.90
11087;DHT22;5597;47.588;9.642;2024-01-15T02:21:25;1.90;99.90
11087;DHT22;5597;47.588;9.642;2024-01-15T02:23:57;1.90;99.90
11087;DHT22;5597;47.588;9.642;2024-01-15T02:26:23;1.90;99.90
11087;DHT22;5597;47.588;9.642;2024-01-15T02:28:49;1.90;99.90
11087;DHT22;5597;47.588;9.642;2024-01-15T02:31:15;1.90;99.90
11087;DHT22;5597;47.588;9.642;2024-01-15T02:33:42;1.90;99.90
11087;DHT22;5597;47.588;9.642;2024-01-15T02:36:09;2.00;99.90
11087;DHT22;5597;47.588;9.642;2024-01-15T02:38:34;2.00;99.90
11087;DHT22;5597;47.588;9.642;2024-01-15T02:41:00;1.90;99.90
11087;DHT22;5597;47.588;9.642;2024-01-15T02:43:26;2.00;99.90
11087;DHT22;5597;47.588;9.642;2024-01-15T02:45:51;2.00;99.90
11087;DHT22;5597;47.588;9.642;2024-01-15T02:48:17;2.00;99.90
11087;DHT22;5597;47.588;9.642;2024-01-15T02:50:42;1.90;99.90
11087;DHT22;5597;47.588;9.642;2024-01-15T02:53:08;1.90;99.90
11087;DHT22;5597;47.588;9.642;2024-01-15T02:55:34;1.90;99.90
11087;DHT22;5597;47.588;9.642;2024-01-15T02:57:59;1.90;99.90
11087;DHT22;5597;47.588;9.642;2024-01-15T03:00:25;1.90;99.90
11087;DHT22;5597;47.588;9.642;2024-01-15T03:02:51;1.80;99.90
11087;DHT22;5597;47.588;9.642;2024-01-15T03:05:17;1.80;99.90
11087;DHT22;5597;47.588;9.642;2024-01-15T03:07:43;1.80;99.90
11087;DHT22;5597;47.588;9.642;2024-01-15T03:10:09;1.80;99.90
11087;DHT22;5597;47.588;9.642;2024-01-15T03:12:35;1.70;99.90
11087;DHT22;5597;47.588;9.642;2024-01-15T03:15:00;1.70;99.90
11087;DHT22;5597;47.588;9.642;2024-01-15T03:17:26;1.70;99.90
11087;DHT22;5597;47.588;9.642;2024-01-15T03:19:52;1.60;99.90
11087;DHT22;5597;47.588;9.642;2024-01-15T03:22:17;1.50;99.90
11087;DHT22;5597;47.588;9.642;2024-01-15T03:24:44;1.50;99.90
11087;DHT22;5597;47.588;9.642;2024-01-15T03:27:09;1.40;99.90
11087;DHT22;5597;47.588;9.642;2024-01-15T03:29:35;1.40;99.90
11087;DHT22;5597;47.588;9.642;2024-01-15T03:32:01;1.30;99.90
11087;DHT22;5597;47.588;9.642;2024-01-15T03:34:26;1.30;99.90
11087;DHT22;5597;47.588;9.642;2024-01-15T03:36:52;1.30;99.90
11087;DHT22;5597;47.588;9.642;2024-01-15T03:39:18;1.30;99.90
11087;DHT22;5597;47.588;9.642;2024-01-15T03:41:43;1.30;99.90
11087;DHT22;5597;47.588;9.642;2024-01-15T03:44:09;1.30;99.90
11087;DHT22;5597;47.588;9.642;2024-01-15T03:46:35;1.20;99.90
11087;DHT22;5597;47.588;9.642;2024-01-15T03:49:00;1.20;99.90
11087;DHT22;5597;47.588;9.642;2024-01-15T03:51:26;1.20;99.90
11087;DHT22;5597;47.588;9.642;2024-01-15T03:53:52;1.20;99.90
11087;DHT22;5597;47.588;9.642;2024-01-15T03:56:17;1.20;99.90
11087;DHT22;5597;47.588;9.642;2024-01-15T03:58:43;1.10;99.90
11087;DHT22;5597;47.588;9.642;2024-01-15T04:01:12;1.10;99.90
11087;DHT22;5597;47.588;9.642;2024-01-15T04:03:37;1.10;99.90
11087;DHT22;5597;47.588;9.642;2024-01-15T04:06:04;1.10;99.90
11087;DHT22;5597;47.588;9.642;2024-01-15T04:08:30;1.00;99.90
11087;DHT22;5597;47.588;9.642;2024-01-15T04:10:55;1.00;99.90
11087;DHT22;5597;47.588;9.642;2024-01-15T04:13:21;1.00;99.90
11087;DHT22;5597;47.588;9.642;2024-01-15T04:15:47;1.00;99.90
11087;DHT22;5597;47.588;9.642;2024-01-15T04:18:13;1.00;99.90
11087;DHT22;5597;47.588;9.642;2024-01-15T04:20:38;0.90;99.90
11087;DHT22;5597;47.588;9.642;2024-01-15T04:23:05;0.90;99.90
11087;DHT22;5597;47.588;9.642;2024-01-15T04:25:30;0.90;99.90
11087;DHT22;5597;47.588;9.642;2024-01-15T04:27:56;1.00;99.90
11087;DHT22;5597;47.588;9.642;2024-01-15T04:30:22;0.90;99.90
11087;DHT22;5597;47.588;9.642;2024-01-15T04:32:47;0.90;99.90
11087;DHT22;5597;47.588;9.642;2024-01-15T04:35:13;0.90;99.90
11087;DHT22;5597;47.588;9.642;2024-01-15T04:37:39;0.90;99.90
11087;DHT22;5597;47.588;9.642;2024-01-15T04:40:06;0.90;99.90
11087;DHT22;5597;47.588;9.642;2024-01-15T04:42:32;0.90;99.90
11087;DHT22;5597;47.588;9.642;2024-01-15T04:44:57;0.90;99.90
11087;DHT22;5597;47.588;9.642;2024-01-15T04:47:23;0.90;99.90
11087;DHT22;5597;47.588;9.642;2024-01-15T04:49:49;0.90;99.90
11087;DHT22;5597;47.588;9.642;2024-01-15T04:52:15;0.90;99.90
11087;DHT22;5597;47.588;9.642;2024-01-15T04:54:40;0.90;99.90
11087;DHT22;5597;47.588;9.642;2024-01-15T04:57:06;0.80;99.90
11087;DHT22;5597;47.588;9.642;2024-01-15T04:59:32;0.90;99.90
11087;DHT22;5597;47.588;9.642;2024-01-15T05:01:57;0.80;99.90
11087;DHT22;5597;47.588;9.642;2024-01-15T05:04:23;0.80;99.90
11087;DHT22;5597;47.588;9.642;2024-01-15T05:06:50;0.80;99.90
11087;DHT22;5597;47.588;9.642;2024-01-15T05:09:16;0.80;99.90
11087;DHT22;5597;47.588;9.642;2024-01-15T05:11:43;0.80;99.90
11087;DHT22;5597;47.588;9.642;2024-01-15T05:14:09;0.80;99.90
11087;DHT22;5597;47.588;9.642;2024-01-15T05:16:35;0.80;99.90
11087;DHT22;5597;47.588;9.642;2024-01-15T05:19:00;0.80;99.90
11087;DHT22;5597;47.588;9.642;2024-01-15T05:21:26;0.80;99.90
11087;DHT22;5597;47.588;9.642;2024-01-15T05:23:51;0.80;99.90
11087;DHT22;5597;47.588;9.642;2024-01-15T05:26:17;0.80;99.90
11087;DHT22;5597;47.588;9.642;2024-01-15T05:28:43;0.80;99.90
11087;DHT22;5597;47.588;9.642;2024-01-15T05:31:09;0.80;99.90
11087;DHT22;5597;47.588;9.642;2024-01-15T05:33:35;0.80;99.90
11087;DHT22;5597;47.588;9.642;2024-01-15T05:36:00;0.80;99.90
11087;DHT22;5597;47.588;9.642;2024-01-15T05:38:27;0.80;99.90
11087;DHT22;5597;47.588;9.642;2024-01-15T05:40:53;0.80;99.90
11087;DHT22;5597;47.588;9.642;2024-01-15T05:43:19;0.80;99.90
11087;DHT22;5597;47.588;9.642;2024-01-15T05:45:45;0.80;99.90
11087;DHT22;5597;47.588;9.642;2024-01-15T05:48:11;0.80;99.90
11087;DHT22;5597;47.588;9.642;2024-01-15T05:50:38;0.80;99.90
11087;DHT22;5597;47.588;9.642;2024-01-15T05:53:04;0.80;99.90
11087;DHT22;5597;47.588;9.642;2024-01-15T05:55:29;0.80;99.90
11087;DHT22;5597;47.588;9.642;2024-01-15T05:57:55;0.80;99.90
11087;DHT22;5597;47.588;9.642;2024-01-15T06:00:21;0.80;99.90
11087;DHT22;5597;47.588;9.642;2024-01-15T06:02:47;0.80;99.90
11087;DHT22;5597;47.588;9.642;2024-01-15T06:05:12;0.80;99.90
11087;DHT22;5597;47.588;9.642;2024-01-15T06:07:38;0.80;99.90
11087;DHT22;5597;47.588;9.642;2024-01-15T06:10:04;0.80;99.90
11087;DHT22;5597;47.588;9.642;2024-01-15T06:12:30;0.90;99.90
11087;DHT22;5597;47.588;9.642;2024-01-15T06:14:57;0.90;99.90
11087;DHT22;5597;47.588;9.642;2024-01-15T06:17:23;0.90;99.90
11087;DHT22;5597;47.588;9.642;2024-01-15T06:19:49;0.90;99.90
11087;DHT22;5597;47.588;9.642;2024-01-15T06:22:14;1.00;99.90
11087;DHT22;5597;47.588;9.642;2024-01-15T06:24:40;1.00;99.90
11087;DHT22;5597;47.588;9.642;2024-01-15T06:27:06;1.00;99.90
11087;DHT22;5597;47.588;9.642;2024-01-15T06:29:32;0.90;99.90
11087;DHT22;5597;47.588;9.642;2024-01-15T06:31:57;0.90;99.90
11087;DHT22;5597;47.588;9.642;2024-01-15T06:34:23;1.00;99.90
11087;DHT22;5597;47.588;9.642;2024-01-15T06:36:49;1.00;99.90
11087;DHT22;5597;47.588;9.642;2024-01-15T06:39:14;1.00;99.90
11087;DHT22;5597;47.588;9.642;2024-01-15T06:41:40;1.00;99.90
11087;DHT22;5597;47.588;9.642;2024-01-15T06:44:10;1.00;99.90
11087;DHT22;5597;47.588;9.642;2024-01-15T06:46:36;1.00;99.90
11087;DHT22;5597;47.588;9.642;2024-01-15T06:49:02;1.00;99.90
11087;DHT22;5597;47.588;9.642;2024-01-15T06:51:28;1.00;99.90
11087;DHT22;5597;47.588;9.642;2024-01-15T06:53:54;1.00;99.90
11087;DHT22;5597;47.588;9.642;2024-01-15T06:56:19;1.00;99.90
11087;DHT22;5597;47.588;9.642;2024-01-15T06:58:45;1.00;99.90
11087;DHT22;5597;47.588;9.642;2024-01-15T07:01:11;1.00;99.90
11087;DHT22;5597;47.588;9.642;2024-01-15T07:03:37;1.00;99.90
11087;DHT22;5597;47.588;9.642;2024-01-15T07:06:03;1.00;99.90
11087;DHT22;5597;47.588;9.642;2024-01-15T07:08:28;1.00;99.90
11087;DHT22;5597;47.588;9.642;2024-01-15T07:10:54;1.00;99.90
11087;DHT22;5597;47.588;9.642;2024-01-15T07:13:19;1.00;99.90
11087;DHT22;5597;47.588;9.642;2024-01-15T07:15:45;1.00;99.90
11087;DHT22;5597;47.588;9.642;2024-01-15T07:18:11;1.00;99.90
11087;DHT22;5597;47.588;9.642;2024-01-15T07:20:36;1.00;99.90
11087;DHT22;5597;47.588;9.642;2024-01-15T07:23:02;1.00;99.90
11087;DHT22;5597;47.588;9.642;2024-01-15T07:25:28;1.00;99.90
11087;DHT22;5597;47.588;9.642;2024-01-15T07:27:53;1.00;99.90
11087;DHT22;5597;47.588;9.642;2024-01-15T07:30:19;1.00;99.90
11087;DHT22;5597;47.588;9.642;2024-01-15T07:32:47;1.00;99.90
11087;DHT22;5597;47.588;9.642;2024-01-15T07:35:14;1.00;99.90
11087;DHT22;5597;47.588;9.642;2024-01-15T07:37:40;1.00;99.90
11087;DHT22;5597;47.588;9.642;2024-01-15T07:40:06;1.10;99.90
11087;DHT22;5597;47.588;9.642;2024-01-15T07:42:34;1.00;99.90
11087;DHT22;5597;47.588;9.642;2024-01-15T07:45:00;1.00;99.90
11087;DHT22;5597;47.588;9.642;2024-01-15T07:47:26;1.00;99.90
11087;DHT22;5597;47.588;9.642;2024-01-15T07:49:53;1.00;99.90
11087;DHT22;5597;47.588;9.642;2024-01-15T07:52:18;1.00;99.90
11087;DHT22;5597;47.588;9.642;2024-01-15T07:54:44;1.00;99.90
11087;DHT22;5597;47.588;9.642;2024-01-15T07:57:10;1.10;99.90
11087;DHT22;5597;47.588;9.642;2024-01-15T07:59:36;1.00;99.90
11087;DHT22;5597;47.588;9.642;2024-01-15T08:02:01;1.10;99.90
11087;DHT22;5597;47.588;9.642;2024-01-15T08:04:27;1.10;99.90
11087;DHT22;5597;47.588;9.642;2024-01-15T08:06:52;1.00;99.90
11087;DHT22;5597;47.588;9.642;2024-01-15T08:09:18;1.10;99.90
11087;DHT22;5597;47.588;9.642;2024-01-15T08:11:44;1.10;99.90
11087;DHT22;5597;47.588;9.642;2024-01-15T08:14:10;1.10;99.90
11087;DHT22;5597;47.588;9.642;2024-01-15T08:16:38;1.10;99.90
11087;DHT22;5597;47.588;9.642;2024-01-15T08:19:04;1.10;99.90
11087;DHT22;5597;47.588;9.642;2024-01-15T08:21:30;1.10;99.90
11087;DHT22;5597;47.588;9.642;2024-01-15T08:24:01;1.10;99.90
11087;DHT22;5597;47.588;9.642;2024-01-15T08:26:30;1.10;99.90
11087;DHT22;5597;47.588;9.642;2024-01-15T08:28:55;1.10;99.90
11087;DHT22;5597;47.588;9.642;2024-01-15T08:31:21;1.10;99.90
11087;DHT22;5597;47.588;9.642;2024-01-15T08:33:47;1.10;99.90
11087;DHT22;5597;47.588;9.642;2024-01-15T08:36:12;1.10;99.90
11087;DHT22;5597;47.588;9.642;2024-01-15T08:38:38;1.10;99.90
11087;DHT22;5597;47.588;9.642;2024-01-15T08:41:04;1.10;99.90
11087;DHT22;5597;47.588;9.642;2024-01-15T08:43:30;1.20;99.90
11087;DHT22;5597;47.588;9.642;2024-01-15T08:45:58;1.10;99.90
11087;DHT22;5597;47.588;9.642;2024-01-15T08:48:24;1.10;99.90
11087;DHT22;5597;47.588;9.642;2024-01-15T08:50:53;1.10;99.90
11087;DHT22;5597;47.588;9.642;2024-01-15T08:53:18;1.10;99.90
11087;DHT22;5597;47.588;9.642;2024-01-15T08:55:44;1.10;99.90
11087;DHT22;5597;47.588;9.642;2024-01-15T08:58:10;1.10;99.90
11087;DHT22;5597;47.588;9.642;2024-01-15T09:00:35;1.10;99.90
11087;DHT22;5597;47.588;9.642;2024-01-15T09:03:02;1.10;99.90
11087;DHT22;5597;47.588;9.642;2024-01-15T09:05:27;1.10;99.90
11087;DHT22;5597;47.588;9.642;2024-01-15T09:07:53;1.10;99.90
11087;DHT22;5597;47.588;9.642;2024-01-15T09:10:19;1.10;99.90
11087;DHT22;5597;47.588;9.642;2024-01-15T09:12:45;1.10;99.90
11087;DHT22;5597;47.588;9.642;2024-01-15T09:15:11;1.10;99.90
11087;DHT22;5597;47.588;9.642;2024-01-15T09:17:36;1.10;99.90
11087;DHT22;5597;47.588;9.642;2024-01-15T09:20:02;1.10;99.90
11087;DHT22;5597;47.588;9.642;2024-01-15T09:22:29;1.10;99.90
11087;DHT22;5597;47.588;9.642;2024-01-15T09:24:55;1.10;99.90
11087;DHT22;5597;47.588;9.642;2024-01-15T09:27:21;1.10;99.90
11087;DHT22;5597;47.588;9.642;2024-01-15T09:29:46;1.10;99.90
11087;DHT22;5597;47.588;9.642;2024-01-15T09:32:12;1.10;99.90
11087;DHT22;5597;47.588;9.642;2024-01-15T09:34:38;1.10;99.90
11087;DHT22;5597;47.588;9.642;2024-01-15T09:37:04;1.20;99.90
11087;DHT22;5597;47.588;9.642;2024-01-15T09:39:30;1.20;99.90
11087;DHT22;5597;47.588;9.642;2024-01-15T09:41:57;1.20;99.90
11087;DHT22;5597;47.588;9.642;2024-01-15T09:44:23;1.20;99.90
11087;DHT22;5597;47.588;9.642;2024-01-15T09:46:49;1.20;99.90
11087;DHT22;5597;47.588;9.642;2024-01-15T09:49:16;1.30;99.90
11087;DHT22;5597;47.588;9.642;2024-01-15T09:51:42;1.20;99.90
11087;DHT22;5597;47.588;9.642;2024-01-15T09:54:08;1.30;99.90
11087;DHT22;5597;47.588;9.642;2024-01-15T09:56:34;1.30;99.90
11087;DHT22;5597;47.588;9.642;2024-01-15T09:59:01;1.30;99.90
11087;DHT22;5597;47.588;9.642;2024-01-15T10:01:26;1.20;99.90
11087;DHT22;5597;47.588;9.642;2024-01-15T10:03:54;1.20;99.90
11087;DHT22;5597;47.588;9.642;2024-01-15T10:06:21;1.30;99.90
11087;DHT22;5597;47.588;9.642;2024-01-15T10:08:49;1.30;99.90
11087;DHT22;5597;47.588;9.642;2024-01-15T10:11:15;1.20;99.90
11087;DHT22;5597;47.588;9.642;2024-01-15T10:13:45;1.30;99.90
11087;DHT22;5597;47.588;9.642;2024-01-15T10:16:11;1.20;99.90
11087;DHT22;5597;47.588;9.642;2024-01-15T10:18:36;1.30;99.90
11087;DHT22;5597;47.588;9.642;2024-01-15T10:21:05;1.20;99.90
11087;DHT22;5597;47.588;9.642;2024-01-15T10:23:34;1.30;99.90
11087;DHT22;5597;47.588;9.642;2024-01-15T10:26:01;1.30;99.90
11087;DHT22;5597;47.588;9.642;2024-01-15T10:28:27;1.30;99.90
11087;DHT22;5597;47.588;9.642;2024-01-15T10:30:58;1.30;99.90
11087;DHT22;5597;47.588;9.642;2024-01-15T10:33:27;1.30;99.90
11087;DHT22;5597;47.588;9.642;2024-01-15T10:35:57;1.30;99.90
11087;DHT22;5597;47.588;9.642;2024-01-15T10:38:23;1.30;99.90
11087;DHT22;5597;47.588;9.642;2024-01-15T10:40:53;1.30;99.90
11087;DHT22;5597;47.588;9.642;2024-01-15T10:43:19;1.30;99.90
11087;DHT22;5597;47.588;9.642;2024-01-15T10:45:45;1.30;99.90
11087;DHT22;5597;47.588;9.642;2024-01-15T10:48:12;1.30;99.90
11087;DHT22;5597;47.588;9.642;2024-01-15T10:50:37;1.30;99.90
11087;DHT22;5597;47.588;9.642;2024-01-15T10:53:04;1.30;99.90
11087;DHT22;5597;47.588;9.642;2024-01-15T10:55:33;1.30;99.90
11087;DHT22;5597;47.588;9.642;2024-01-15T10:58:01;1.30;99.90
11087;DHT22;5597;47.588;9.642;2024-01-15T11:00:29;1.30;99.90
11087;DHT22;5597;47.588;9.642;2024-01-15T11:02:55;1.30;99.90
11087;DHT22;5597;47.588;9.642;2024-01-15T11:05:22;1.30;99.90
11087;DHT22;5597;47.588;9.642;2024-01-15T11:07:49;1.40;99.90
11087;DHT22;5597;47.588;9.642;2024-01-15T11:10:38;1.40;99.90
11087;DHT22;5597;47.588;9.642;2024-01-15T11:13:03;1.40;99.90
11087;DHT22;5597;47.588;9.642;2024-01-15T11:15:30;1.40;99.90
11087;DHT22;5597;47.588;9.642;2024-01-15T11:18:00;1.40;99.90
11087;DHT22;5597;47.588;9.642;2024-01-15T11:20:27;1.40;99.90
11087;DHT22;5597;47.588;9.642;2024-01-15T11:22:52;1.40;99.90
11087;DHT22;5597;47.588;9.642;2024-01-15T11:25:19;1.40;99.90
11087;DHT22;5597;47.588;9.642;2024-01-15T11:27:51;1.50;99.90
11087;DHT22;5597;47.588;9.642;2024-01-15T11:30:18;1.40;99.90
11087;DHT22;5597;47.588;9.642;2024-01-15T11:32:45;1.50;99.90
11087;DHT22;5597;47.588;9.642;2024-01-15T11:35:13;1.50;99.90
11087;DHT22;5597;47.588;9.642;2024-01-15T11:40:20;1.50;99.90
11087;DHT22;5597;47.588;9.642;2024-01-15T11:42:47;1.50;99.90
11087;DHT22;5597;47.588;9.642;2024-01-15T11:45:16;1.50;99.90
11087;DHT22;5597;47.588;9.642;2024-01-15T11:48:15;1.50;99.90
11087;DHT22;5597;47.588;9.642;2024-01-15T11:50:45;1.50;99.90
11087;DHT22;5597;47.588;9.642;2024-01-15T11:53:36;1.50;99.90
11087;DHT22;5597;47.588;9.642;2024-01-15T11:56:03;1.50;99.90
11087;DHT22;5597;47.588;9.642;2024-01-15T11:58:31;1.60;99.90
11087;DHT22;5597;47.588;9.642;2024-01-15T12:00:57;1.60;99.90
11087;DHT22;5597;47.588;9.642;2024-01-15T12:03:24;1.60;99.90
11087;DHT22;5597;47.588;9.642;2024-01-15T12:05:52;1.60;99.90
11087;DHT22;5597;47.588;9.642;2024-01-15T12:08:24;1.60;99.90
11087;DHT22;5597;47.588;9.642;2024-01-15T12:10:51;1.70;99.90
11087;DHT22;5597;47.588;9.642;2024-01-15T12:13:17;1.60;99.90
11087;DHT22;5597;47.588;9.642;2024-01-15T12:15:43;1.70;99.90
11087;DHT22;5597;47.588;9.642;2024-01-15T12:18:11;1.70;99.90
11087;DHT22;5597;47.588;9.642;2024-01-15T12:20:37;1.70;99.90
11087;DHT22;5597;47.588;9.642;2024-01-15T12:23:03;1.80;99.90
11087;DHT22;5597;47.588;9.642;2024-01-15T12:25:30;1.80;99.90
11087;DHT22;5597;47.588;9.642;2024-01-15T12:27:56;1.80;99.90
11087;DHT22;5597;47.588;9.642;2024-01-15T12:30:23;1.90;99.90
11087;DHT22;5597;47.588;9.642;2024-01-15T12:32:48;1.80;99.90
11087;DHT22;5597;47.588;9.642;2024-01-15T12:35:14;1.90;99.90
11087;DHT22;5597;47.588;9.642;2024-01-15T12:37:41;1.90;99.90
11087;DHT22;5597;47.588;9.642;2024-01-15T12:40:08;1.90;99.90
11087;DHT22;5597;47.588;9.642;2024-01-15T12:42:41;1.90;99.90
11087;DHT22;5597;47.588;9.642;2024-01-15T12:45:08;2.00;99.90
11087;DHT22;5597;47.588;9.642;2024-01-15T12:47:34;2.00;99.90
11087;DHT22;5597;47.588;9.642;2024-01-15T12:50:00;2.00;99.90
11087;DHT22;5597;47.588;9.642;2024-01-15T12:52:29;2.00;99.90
11087;DHT22;5597;47.588;9.642;2024-01-15T12:54:55;2.00;99.90
11087;DHT22;5597;47.588;9.642;2024-01-15T12:57:21;2.00;99.90
11087;DHT22;5597;47.588;9.642;2024-01-15T12:59:48;2.10;99.90
11087;DHT22;5597;47.588;9.642;2024-01-15T13:02:15;2.10;99.90
11087;DHT22;5597;47.588;9.642;2024-01-15T13:04:42;2.10;99.90
11087;DHT22;5597;47.588;9.642;2024-01-15T13:07:08;2.10;99.90
11087;DHT22;5597;47.588;9.642;2024-01-15T13:09:34;2.10;99.90
11087;DHT22;5597;47.588;9.642;2024-01-15T13:12:01;2.10;99.90
11087;DHT22;5597;47.588;9.642;2024-01-15T13:14:27;2.10;99.90
11087;DHT22;5597;47.588;9.642;2024-01-15T13:16:53;2.20;99.90
11087;DHT22;5597;47.588;9.642;2024-01-15T13:19:19;2.10;99.90
11087;DHT22;5597;47.588;9.642;2024-01-15T13:21:46;2.20;99.90
11087;DHT22;5597;47.588;9.642;2024-01-15T13:24:11;2.20;99.90
11087;DHT22;5597;47.588;9.642;2024-01-15T13:26:37;2.20;99.90
11087;DHT22;5597;47.588;9.642;2024-01-15T13:29:03;2.20;99.90
11087;DHT22;5597;47.588;9.642;2024-01-15T13:31:29;2.20;99.90
11087;DHT22;5597;47.588;9.642;2024-01-15T13:33:55;2.20;99.90
11087;DHT22;5597;47.588;9.642;2024-01-15T13:36:22;2.20;99.90
11087;DHT22;5597;47.588;9.642;2024-01-15T13:38:49;2.20;99.90
11087;DHT22;5597;47.588;9.642;2024-01-15T13:41:15;2.30;99.90
11087;DHT22;5597;47.588;9.642;2024-01-15T13:43:40;2.30;99.90
11087;DHT22;5597;47.588;9.642;2024-01-15T13:46:06;2.30;99.90
11087;DHT22;5597;47.588;9.642;2024-01-15T13:48:31;2.30;99.90
11087;DHT22;5597;47.588;9.642;2024-01-15T13:50:58;2.30;99.90
11087;DHT22;5597;47.588;9.642;2024-01-15T13:53:24;2.30;99.90
11087;DHT22;5597;47.588;9.642;2024-01-15T13:55:50;2.30;99.90
11087;DHT22;5597;47.588;9.642;2024-01-15T13:58:16;2.30;99.90
11087;DHT22;5597;47.588;9.642;2024-01-15T14:00:43;2.30;99.90
11087;DHT22;5597;47.588;9.642;2024-01-15T14:03:09;2.30;99.90
11087;DHT22;5597;47.588;9.642;2024-01-15T14:05:34;2.30;99.90
11087;DHT22;5597;47.588;9.642;2024-01-15T14:08:00;2.30;99.90
11087;DHT22;5597;47.588;9.642;2024-01-15T14:10:26;2.30;99.90
11087;DHT22;5597;47.588;9.642;2024-01-15T14:12:51;2.30;99.90
11087;DHT22;5597;47.588;9.642;2024-01-15T14:15:17;2.30;99.90
11087;DHT22;5597;47.588;9.642;2024-01-15T14:17:44;2.30;99.90
11087;DHT22;5597;47.588;9.642;2024-01-15T14:20:10;2.30;99.90
11087;DHT22;5597;47.588;9.642;2024-01-15T14:22:35;2.30;99.90
11087;DHT22;5597;47.588;9.642;2024-01-15T14:25:01;2.30;99.90
11087;DHT22;5597;47.588;9.642;2024-01-15T14:27:26;2.30;99.90
11087;DHT22;5597;47.588;9.642;2024-01-15T14:29:52;2.30;99.90
11087;DHT22;5597;47.588;9.642;2024-01-15T14:32:17;2.30;99.90
11087;DHT22;5597;47.588;9.642;2024-01-15T14:34:43;2.30;99.90
11087;DHT22;5597;47.588;9.642;2024-01-15T14:37:09;2.30;99.90
11087;DHT22;5597;47.588;9.642;2024-01-15T14:39:35;2.30;99.90
11087;DHT22;5597;47.588;9.642;2024-01-15T14:42:00;2.30;99.90
11087;DHT22;5597;47.588;9.642;2024-01-15T14:44:26;2.30;99.90
11087;DHT22;5597;47.588;9.642;2024-01-15T14:46:53;2.30;99.90
11087;DHT22;5597;47.588;9.642;2024-01-15T14:49:20;2.30;99.90
11087;DHT22;5597;47.588;9.642;2024-01-15T14:51:45;2.30;99.90
11087;DHT22;5597;47.588;9.642;2024-01-15T14:54:11;2.30;99.90
11087;DHT22;5597;47.588;9.642;2024-01-15T14:56:36;2.20;99.90
11087;DHT22;5597;47.588;9.642;2024-01-15T14:59:02;2.20;99.90
11087;DHT22;5597;47.588;9.642;2024-01-15T15:01:28;2.30;99.90
11087;DHT22;5597;47.588;9.642;2024-01-15T15:03:53;2.30;99.90
11087;DHT22;5597;47.588;9.642;2024-01-15T15:06:19;2.30;99.90
11087;DHT22;5597;47.588;9.642;2024-01-15T15:08:46;2.30;99.90
11087;DHT22;5597;47.588;9.642;2024-01-15T15:11:12;2.30;99.90
11087;DHT22;5597;47.588;9.642;2024-01-15T15:13:37;2.30;99.90
11087;DHT22;5597;47.588;9.642;2024-01-15T15:16:03;2.30;99.90
11087;DHT22;5597;47.588;9.642;2024-01-15T15:18:28;2.30;99.90
11087;DHT22;5597;47.588;9.642;2024-01-15T15:20:55;2.30;99.90
11087;DHT22;5597;47.588;9.642;2024-01-15T15:23:21;2.30;99.90
11087;DHT22;5597;47.588;9.642;2024-01-15T15:25:47;2.30;99.90
11087;DHT22;5597;47.588;9.642;2024-01-15T15:28:12;2.30;99.90
11087;DHT22;5597;47.588;9.642;2024-01-15T15:30:39;2.20;99.90
11087;DHT22;5597;47.588;9.642;2024-01-15T15:33:05;2.20;99.90
11087;DHT22;5597;47.588;9.642;2024-01-15T15:35:31;2.30;99.90
11087;DHT22;5597;47.588;9.642;2024-01-15T15:37:57;2.20;99.90
11087;DHT22;5597;47.588;9.642;2024-01-15T15:40:23;2.20;99.90
11087;DHT22;5597;47.588;9.642;2024-01-15T15:42:50;2.20;99.90
11087;DHT22;5597;47.588;9.642;2024-01-15T15:45:15;2.20;99.90
11087;DHT22;5597;47.588;9.642;2024-01-15T15:47:41;2.20;99.90
11087;DHT22;5597;47.588;9.642;2024-01-15T15:50:07;2.20;99.90
11087;DHT22;5597;47.588;9.642;2024-01-15T15:52:32;2.20;99.90
11087;DHT22;5597;47.588;9.642;2024-01-15T15:54:58;2.20;99.90
11087;DHT22;5597;47.588;9.642;2024-01-15T15:57:23;2.20;99.90
11087;DHT22;5597;47.588;9.642;2024-01-15T15:59:51;2.10;99.90